sensor_id;sensor_type;location;lat;lon;timestamp;temperature;humidity
47532;DHT22;33273;52.254;7.988;2023-07-09T00:00:19;22.40;46.30
47532;DHT22;33273;52.254;7.988;2023-07-09T00:02:46;22.40;47.30
47532;DHT22;33273;52.254;7.988;2023-07-09T00:05:15;22.40;48.10
47532;DHT22;33273;52.254;7.988;2023-07-09T00:07:42;22.20;48.20
47532;DHT22;33273;52.254;7.988;2023-07-09T00:10:20;22.20;48.30
47532;DHT22;33273;52.254;7.988;2023-07-09T00:12:47;22.00;49.50
47532;DHT22;33273;52.254;7.988;2023-07-09T00:15:15;21.70;51.40
47532;DHT22;33273;52.254;7.988;2023-07-09T00:17:45;21.70;52.40
47532;DHT22;33273;52.254;7.988;2023-07-09T00:20:16;21.60;52.80
47532;DHT22;33273;52.254;7.988;2023-07-09T00:22:43;21.50;52.40
47532;DHT22;33273;52.254;7.988;2023-07-09T00:25:21;21.50;53.60
47532;DHT22;33273;52.254;7.988;2023-07-09T00:27:47;21.60;52.70
47532;DHT22;33273;52.254;7.988;2023-07-09T00:30:21;21.60;52.60
47532;DHT22;33273;52.254;7.988;2023-07-09T00:32:48;21.70;52.10
47532;DHT22;33273;52.254;7.988;2023-07-09T00:35:15;21.80;50.50
47532;DHT22;33273;52.254;7.988;2023-07-09T00:37:42;21.80;50.30
47532;DHT22;33273;52.254;7.988;2023-07-09T00:40:18;21.80;50.90
47532;DHT22;33273;52.254;7.988;2023-07-09T00:42:50;21.80;51.70
47532;DHT22;33273;52.254;7.988;2023-07-09T00:45:23;21.80;52.60
47532;DHT22;33273;52.254;7.988;2023-07-09T00:48:13;21.70;53.60
47532;DHT22;33273;52.254;7.988;2023-07-09T00:50:49;21.70;53.90
47532;DHT22;33273;52.254;7.988;2023-07-09T00:53:25;21.70;53.30
47532;DHT22;33273;52.254;7.988;2023-07-09T00:56:04;21.70;52.80
47532;DHT22;33273;52.254;7.988;2023-07-09T00:58:34;21.60;55.30
47532;DHT22;33273;52.254;7.988;2023-07-09T01:01:04;21.40;56.50
47532;DHT22;33273;52.254;7.988;2023-07-09T01:03:40;21.30;56.50
47532;DHT22;33273;52.254;7.988;2023-07-09T01:06:08;21.30;55.70
47532;DHT22;33273;52.254;7.988;2023-07-09T01:08:38;21.20;55.20
47532;DHT22;33273;52.254;7.988;2023-07-09T01:11:21;21.20;54.80
47532;DHT22;33273;52.254;7.988;2023-07-09T01:13:51;21.20;55.20
47532;DHT22;33273;52.254;7.988;2023-07-09T01:16:19;21.20;55.30
47532;DHT22;33273;52.254;7.988;2023-07-09T01:18:52;21.20;56.10
47532;DHT22;33273;52.254;7.988;2023-07-09T01:21:19;21.10;57.00
47532;DHT22;33273;52.254;7.988;2023-07-09T01:23:46;21.00;58.00
47532;DHT22;33273;52.254;7.988;2023-07-09T01:26:16;20.90;58.60
47532;DHT22;33273;52.254;7.988;2023-07-09T01:28:43;20.90;58.30
47532;DHT22;33273;52.254;7.988;2023-07-09T01:31:11;20.90;57.20
47532;DHT22;33273;52.254;7.988;2023-07-09T01:33:39;20.90;57.60
47532;DHT22;33273;52.254;7.988;2023-07-09T01:36:07;20.80;57.70
47532;DHT22;33273;52.254;7.988;2023-07-09T01:38:33;20.80;58.30
47532;DHT22;33273;52.254;7.988;2023-07-09T01:41:00;20.90;56.20
47532;DHT22;33273;52.254;7.988;2023-07-09T01:43:28;20.90;55.40
47532;DHT22;33273;52.254;7.988;2023-07-09T01:45:54;21.00;56.30
47532;DHT22;33273;52.254;7.988;2023-07-09T01:48:24;21.00;56.60
47532;DHT22;33273;52.254;7.988;2023-07-09T01:50:51;20.90;57.60
47532;DHT22;33273;52.254;7.988;2023-07-09T01:53:22;20.70;58.50
47532;DHT22;33273;52.254;7.988;2023-07-09T01:55:52;20.70;58.90
47532;DHT22;33273;52.254;7.988;2023-07-09T01:58:21;20.60;59.30
47532;DHT22;33273;52.254;7.988;2023-07-09T02:00:51;20.60;60.90
47532;DHT22;33273;52.254;7.988;2023-07-09T02:03:17;20.50;61.20
47532;DHT22;33273;52.254;7.988;2023-07-09T02:05:43;20.50;61.10
47532;DHT22;33273;52.254;7.988;2023-07-09T02:08:09;20.40;60.60
47532;DHT22;33273;52.254;7.988;2023-07-09T02:10:35;20.40;60.70
47532;DHT22;33273;52.254;7.988;2023-07-09T02:13:01;20.30;63.40
47532;DHT22;33273;52.254;7.988;2023-07-09T02:15:27;20.30;65.40
47532;DHT22;33273;52.254;7.988;2023-07-09T02:17:53;20.10;66.40
47532;DHT22;33273;52.254;7.988;2023-07-09T02:20:19;20.20;64.50
47532;DHT22;33273;52.254;7.988;2023-07-09T02:22:45;20.20;63.20
47532;DHT22;33273;52.254;7.988;2023-07-09T02:25:11;20.20;60.80
47532;DHT22;33273;52.254;7.988;2023-07-09T02:27:37;20.20;62.00
47532;DHT22;33273;52.254;7.988;2023-07-09T02:30:05;20.10;61.60
47532;DHT22;33273;52.254;7.988;2023-07-09T02:32:31;20.10;60.40
47532;DHT22;33273;52.254;7.988;2023-07-09T02:34:57;20.00;61.50
47532;DHT22;33273;52.254;7.988;2023-07-09T02:37:25;19.90;63.50
47532;DHT22;33273;52.254;7.988;2023-07-09T02:39:52;19.90;64.90
47532;DHT22;33273;52.254;7.988;2023-07-09T02:42:20;19.90;66.70
47532;DHT22;33273;52.254;7.988;2023-07-09T02:44:48;19.80;67.70
47532;DHT22;33273;52.254;7.988;2023-07-09T02:47:15;19.70;68.60
47532;DHT22;33273;52.254;7.988;2023-07-09T02:49:41;19.50;70.90
47532;DHT22;33273;52.254;7.988;2023-07-09T02:52:08;19.40;71.10
47532;DHT22;33273;52.254;7.988;2023-07-09T02:54:35;19.40;71.10
47532;DHT22;33273;52.254;7.988;2023-07-09T02:57:02;19.30;73.00
47532;DHT22;33273;52.254;7.988;2023-07-09T02:59:29;19.10;73.50
47532;DHT22;33273;52.254;7.988;2023-07-09T03:01:56;19.00;73.80
47532;DHT22;33273;52.254;7.988;2023-07-09T03:04:22;19.00;73.30
47532;DHT22;33273;52.254;7.988;2023-07-09T03:06:48;19.00;72.70
47532;DHT22;33273;52.254;7.988;2023-07-09T03:09:14;19.00;72.40
47532;DHT22;33273;52.254;7.988;2023-07-09T03:11:40;19.10;71.30
47532;DHT22;33273;52.254;7.988;2023-07-09T03:14:06;19.10;70.60
47532;DHT22;33273;52.254;7.988;2023-07-09T03:16:34;19.10;72.00
47532;DHT22;33273;52.254;7.988;2023-07-09T03:19:00;19.20;71.70
47532;DHT22;33273;52.254;7.988;2023-07-09T03:21:28;19.20;70.20
47532;DHT22;33273;52.254;7.988;2023-07-09T03:23:55;19.20;69.80
47532;DHT22;33273;52.254;7.988;2023-07-09T03:26:22;19.30;69.60
47532;DHT22;33273;52.254;7.988;2023-07-09T03:28:48;19.20;70.90
47532;DHT22;33273;52.254;7.988;2023-07-09T03:31:14;19.10;72.70
47532;DHT22;33273;52.254;7.988;2023-07-09T03:33:40;19.10;74.10
47532;DHT22;33273;52.254;7.988;2023-07-09T03:36:05;19.00;74.90
47532;DHT22;33273;52.254;7.988;2023-07-09T03:38:31;19.00;75.60
47532;DHT22;33273;52.254;7.988;2023-07-09T03:40:57;19.00;76.30
47532;DHT22;33273;52.254;7.988;2023-07-09T03:43:24;19.00;76.60
47532;DHT22;33273;52.254;7.988;2023-07-09T03:45:50;19.00;77.30
47532;DHT22;33273;52.254;7.988;2023-07-09T03:48:17;19.00;77.40
47532;DHT22;33273;52.254;7.988;2023-07-09T03:50:43;19.10;76.60
47532;DHT22;33273;52.254;7.988;2023-07-09T03:53:10;19.10;76.90
47532;DHT22;33273;52.254;7.988;2023-07-09T03:55:37;19.10;76.40
47532;DHT22;33273;52.254;7.988;2023-07-09T03:58:03;19.10;76.90
47532;DHT22;33273;52.254;7.988;2023-07-09T04:00:29;19.00;76.60
47532;DHT22;33273;52.254;7.988;2023-07-09T04:02:55;19.10;75.90
47532;DHT22;33273;52.254;7.988;2023-07-09T04:05:24;19.10;73.80
47532;DHT22;33273;52.254;7.988;2023-07-09T04:07:51;19.20;73.10
47532;DHT22;33273;52.254;7.988;2023-07-09T04:10:20;19.30;74.20
47532;DHT22;33273;52.254;7.988;2023-07-09T04:12:46;19.40;74.70
47532;DHT22;33273;52.254;7.988;2023-07-09T04:15:12;19.40;74.90
47532;DHT22;33273;52.254;7.988;2023-07-09T04:17:40;19.50;76.10
47532;DHT22;33273;52.254;7.988;2023-07-09T04:20:07;19.60;76.80
47532;DHT22;33273;52.254;7.988;2023-07-09T04:22:34;19.70;77.20
47532;DHT22;33273;52.254;7.988;2023-07-09T04:25:00;19.90;73.40
47532;DHT22;33273;52.254;7.988;2023-07-09T04:27:28;20.10;73.70
47532;DHT22;33273;52.254;7.988;2023-07-09T04:29:53;20.30;71.80
47532;DHT22;33273;52.254;7.988;2023-07-09T04:32:19;20.50;71.40
47532;DHT22;33273;52.254;7.988;2023-07-09T04:34:46;20.60;70.40
47532;DHT22;33273;52.254;7.988;2023-07-09T04:37:12;20.80;70.80
47532;DHT22;33273;52.254;7.988;2023-07-09T04:39:38;21.10;68.50
47532;DHT22;33273;52.254;7.988;2023-07-09T04:42:09;21.40;67.50
47532;DHT22;33273;52.254;7.988;2023-07-09T04:44:36;21.60;66.40
47532;DHT22;33273;52.254;7.988;2023-07-09T04:47:02;22.00;64.20
47532;DHT22;33273;52.254;7.988;2023-07-09T04:49:28;22.30;62.50
47532;DHT22;33273;52.254;7.988;2023-07-09T04:51:54;22.60;60.00
47532;DHT22;33273;52.254;7.988;2023-07-09T04:54:23;22.80;57.80
47532;DHT22;33273;52.254;7.988;2023-07-09T04:56:49;23.10;55.40
47532;DHT22;33273;52.254;7.988;2023-07-09T04:59:15;23.50;52.80
47532;DHT22;33273;52.254;7.988;2023-07-09T05:01:41;23.70;50.20
47532;DHT22;33273;52.254;7.988;2023-07-09T05:04:07;24.10;49.40
47532;DHT22;33273;52.254;7.988;2023-07-09T05:06:34;24.60;47.20
47532;DHT22;33273;52.254;7.988;2023-07-09T05:09:00;24.80;44.80
47532;DHT22;33273;52.254;7.988;2023-07-09T05:11:27;25.00;42.60
47532;DHT22;33273;52.254;7.988;2023-07-09T05:13:53;25.30;43.40
47532;DHT22;33273;52.254;7.988;2023-07-09T05:16:19;25.10;41.40
47532;DHT22;33273;52.254;7.988;2023-07-09T05:18:47;25.30;41.90
47532;DHT22;33273;52.254;7.988;2023-07-09T05:21:12;25.60;41.10
47532;DHT22;33273;52.254;7.988;2023-07-09T05:23:38;25.70;38.90
47532;DHT22;33273;52.254;7.988;2023-07-09T05:26:04;26.00;39.40
47532;DHT22;33273;52.254;7.988;2023-07-09T05:28:31;26.20;38.90
47532;DHT22;33273;52.254;7.988;2023-07-09T05:31:00;26.70;37.90
47532;DHT22;33273;52.254;7.988;2023-07-09T05:33:26;27.20;36.10
47532;DHT22;33273;52.254;7.988;2023-07-09T05:35:52;27.40;34.90
47532;DHT22;33273;52.254;7.988;2023-07-09T05:38:18;27.30;35.10
47532;DHT22;33273;52.254;7.988;2023-07-09T05:40:43;27.30;34.30
47532;DHT22;33273;52.254;7.988;2023-07-09T05:43:14;27.80;33.20
47532;DHT22;33273;52.254;7.988;2023-07-09T05:45:40;27.80;33.90
47532;DHT22;33273;52.254;7.988;2023-07-09T05:48:06;28.40;34.10
47532;DHT22;33273;52.254;7.988;2023-07-09T05:50:33;29.00;33.00
47532;DHT22;33273;52.254;7.988;2023-07-09T05:52:59;29.20;32.50
47532;DHT22;33273;52.254;7.988;2023-07-09T05:55:27;29.30;31.40
47532;DHT22;33273;52.254;7.988;2023-07-09T05:57:53;29.30;31.40
47532;DHT22;33273;52.254;7.988;2023-07-09T06:00:19;29.40;30.80
47532;DHT22;33273;52.254;7.988;2023-07-09T06:02:45;29.60;29.70
47532;DHT22;33273;52.254;7.988;2023-07-09T06:05:11;29.60;29.70
47532;DHT22;33273;52.254;7.988;2023-07-09T06:07:38;29.90;30.70
47532;DHT22;33273;52.254;7.988;2023-07-09T06:10:05;30.20;29.50
47532;DHT22;33273;52.254;7.988;2023-07-09T06:12:32;30.20;28.70
47532;DHT22;33273;52.254;7.988;2023-07-09T06:14:57;30.80;29.30
47532;DHT22;33273;52.254;7.988;2023-07-09T06:17:23;30.90;28.30
47532;DHT22;33273;52.254;7.988;2023-07-09T06:19:49;30.80;28.00
47532;DHT22;33273;52.254;7.988;2023-07-09T06:22:15;30.80;27.80
47532;DHT22;33273;52.254;7.988;2023-07-09T06:24:41;31.00;28.10
47532;DHT22;33273;52.254;7.988;2023-07-09T06:27:07;31.40;28.40
47532;DHT22;33273;52.254;7.988;2023-07-09T06:29:33;31.60;27.70
47532;DHT22;33273;52.254;7.988;2023-07-09T06:32:00;32.00;26.50
47532;DHT22;33273;52.254;7.988;2023-07-09T06:34:27;31.70;26.30
47532;DHT22;33273;52.254;7.988;2023-07-09T06:36:55;31.60;26.90
47532;DHT22;33273;52.254;7.988;2023-07-09T06:39:21;31.80;26.80
47532;DHT22;33273;52.254;7.988;2023-07-09T06:41:49;31.70;26.60
47532;DHT22;33273;52.254;7.988;2023-07-09T06:44:53;31.60;26.70
47532;DHT22;33273;52.254;7.988;2023-07-09T06:47:19;31.40;27.00
47532;DHT22;33273;52.254;7.988;2023-07-09T06:49:44;31.30;27.50
47532;DHT22;33273;52.254;7.988;2023-07-09T06:52:10;31.70;26.50
47532;DHT22;33273;52.254;7.988;2023-07-09T06:54:37;31.90;26.80
47532;DHT22;33273;52.254;7.988;2023-07-09T06:57:03;31.90;26.30
47532;DHT22;33273;52.254;7.988;2023-07-09T06:59:29;32.30;25.80
47532;DHT22;33273;52.254;7.988;2023-07-09T07:01:54;32.30;25.50
47532;DHT22;33273;52.254;7.988;2023-07-09T07:04:27;32.20;25.60
47532;DHT22;33273;52.254;7.988;2023-07-09T07:07:00;32.00;25.60
47532;DHT22;33273;52.254;7.988;2023-07-09T07:09:26;31.80;27.10
47532;DHT22;33273;52.254;7.988;2023-07-09T07:11:52;31.60;26.20
47532;DHT22;33273;52.254;7.988;2023-07-09T07:14:18;31.80;26.50
47532;DHT22;33273;52.254;7.988;2023-07-09T07:16:44;31.90;26.90
47532;DHT22;33273;52.254;7.988;2023-07-09T07:19:10;31.70;26.80
47532;DHT22;33273;52.254;7.988;2023-07-09T07:21:35;31.80;26.90
47532;DHT22;33273;52.254;7.988;2023-07-09T07:24:01;31.80;26.50
47532;DHT22;33273;52.254;7.988;2023-07-09T07:26:27;31.40;26.80
47532;DHT22;33273;52.254;7.988;2023-07-09T07:28:53;31.30;26.50
47532;DHT22;33273;52.254;7.988;2023-07-09T07:31:19;31.60;27.80
47532;DHT22;33273;52.254;7.988;2023-07-09T07:33:45;31.30;27.20
47532;DHT22;33273;52.254;7.988;2023-07-09T07:36:12;31.10;28.10
47532;DHT22;33273;52.254;7.988;2023-07-09T07:38:38;31.20;27.90
47532;DHT22;33273;52.254;7.988;2023-07-09T07:41:03;31.20;27.10
47532;DHT22;33273;52.254;7.988;2023-07-09T07:43:29;31.20;27.70
47532;DHT22;33273;52.254;7.988;2023-07-09T07:45:55;31.40;26.60
47532;DHT22;33273;52.254;7.988;2023-07-09T07:48:22;31.50;26.80
47532;DHT22;33273;52.254;7.988;2023-07-09T07:50:48;31.50;27.40
47532;DHT22;33273;52.254;7.988;2023-07-09T07:53:15;31.60;27.30
47532;DHT22;33273;52.254;7.988;2023-07-09T07:55:43;31.80;27.20
47532;DHT22;33273;52.254;7.988;2023-07-09T07:58:13;32.00;27.90
47532;DHT22;33273;52.254;7.988;2023-07-09T08:00:40;32.10;27.10
47532;DHT22;33273;52.254;7.988;2023-07-09T08:03:06;32.10;26.80
47532;DHT22;33273;52.254;7.988;2023-07-09T08:05:31;32.30;26.90
47532;DHT22;33273;52.254;7.988;2023-07-09T08:07:57;32.30;25.60
47532;DHT22;33273;52.254;7.988;2023-07-09T08:10:24;32.10;26.50
47532;DHT22;33273;52.254;7.988;2023-07-09T08:12:49;31.90;26.10
47532;DHT22;33273;52.254;7.988;2023-07-09T08:15:16;32.00;27.90
47532;DHT22;33273;52.254;7.988;2023-07-09T08:17:43;32.00;26.80
47532;DHT22;33273;52.254;7.988;2023-07-09T08:20:09;32.10;27.00
47532;DHT22;33273;52.254;7.988;2023-07-09T08:22:35;32.30;27.60
47532;DHT22;33273;52.254;7.988;2023-07-09T08:25:00;32.40;28.40
47532;DHT22;33273;52.254;7.988;2023-07-09T08:27:26;32.40;26.70
47532;DHT22;33273;52.254;7.988;2023-07-09T08:29:52;32.60;27.60
47532;DHT22;33273;52.254;7.988;2023-07-09T08:32:18;32.60;25.70
47532;DHT22;33273;52.254;7.988;2023-07-09T08:34:44;32.60;27.40
47532;DHT22;33273;52.254;7.988;2023-07-09T08:37:09;32.60;26.10
47532;DHT22;33273;52.254;7.988;2023-07-09T08:39:36;32.90;25.30
47532;DHT22;33273;52.254;7.988;2023-07-09T08:42:09;32.80;25.40
47532;DHT22;33273;52.254;7.988;2023-07-09T08:47:42;32.60;26.50
47532;DHT22;33273;52.254;7.988;2023-07-09T08:50:16;32.70;26.20
47532;DHT22;33273;52.254;7.988;2023-07-09T08:52:45;32.70;25.10
47532;DHT22;33273;52.254;7.988;2023-07-09T08:55:22;32.80;25.50
47532;DHT22;33273;52.254;7.988;2023-07-09T08:58:04;32.60;23.90
47532;DHT22;33273;52.254;7.988;2023-07-09T09:00:52;32.60;25.10
47532;DHT22;33273;52.254;7.988;2023-07-09T09:03:28;32.70;25.40
47532;DHT22;33273;52.254;7.988;2023-07-09T09:05:56;32.70;24.60
47532;DHT22;33273;52.254;7.988;2023-07-09T09:10:59;32.60;25.70
47532;DHT22;33273;52.254;7.988;2023-07-09T09:13:30;32.60;24.80
47532;DHT22;33273;52.254;7.988;2023-07-09T09:16:02;32.60;24.70
47532;DHT22;33273;52.254;7.988;2023-07-09T09:18:42;32.70;26.10
47532;DHT22;33273;52.254;7.988;2023-07-09T09:21:22;32.90;26.10
47532;DHT22;33273;52.254;7.988;2023-07-09T09:23:52;33.10;25.70
47532;DHT22;33273;52.254;7.988;2023-07-09T09:26:24;33.20;25.50
47532;DHT22;33273;52.254;7.988;2023-07-09T09:28:52;33.40;24.90
47532;DHT22;33273;52.254;7.988;2023-07-09T09:31:18;33.60;24.90
47532;DHT22;33273;52.254;7.988;2023-07-09T09:33:51;33.90;24.50
47532;DHT22;33273;52.254;7.988;2023-07-09T09:36:21;33.90;24.70
47532;DHT22;33273;52.254;7.988;2023-07-09T09:38:47;33.90;23.90
47532;DHT22;33273;52.254;7.988;2023-07-09T09:41:30;33.90;24.10
47532;DHT22;33273;52.254;7.988;2023-07-09T09:43:59;33.90;23.90
47532;DHT22;33273;52.254;7.988;2023-07-09T09:46:26;33.90;24.60
47532;DHT22;33273;52.254;7.988;2023-07-09T09:48:55;34.10;24.30
47532;DHT22;33273;52.254;7.988;2023-07-09T09:51:23;34.20;23.90
47532;DHT22;33273;52.254;7.988;2023-07-09T09:54:00;34.30;24.40
47532;DHT22;33273;52.254;7.988;2023-07-09T09:56:33;34.30;23.80
47532;DHT22;33273;52.254;7.988;2023-07-09T09:59:00;34.40;23.80
47532;DHT22;33273;52.254;7.988;2023-07-09T10:01:32;34.40;24.80
47532;DHT22;33273;52.254;7.988;2023-07-09T10:04:03;34.40;23.90
47532;DHT22;33273;52.254;7.988;2023-07-09T10:06:40;34.50;24.40
47532;DHT22;33273;52.254;7.988;2023-07-09T10:12:16;34.60;24.40
47532;DHT22;33273;52.254;7.988;2023-07-09T10:15:06;34.70;24.20
47532;DHT22;33273;52.254;7.988;2023-07-09T10:20:45;34.60;23.60
47532;DHT22;33273;52.254;7.988;2023-07-09T10:26:15;34.70;23.90
47532;DHT22;33273;52.254;7.988;2023-07-09T10:37:00;35.00;23.30
47532;DHT22;33273;52.254;7.988;2023-07-09T10:39:40;34.80;20.90
47532;DHT22;33273;52.254;7.988;2023-07-09T10:42:18;34.70;21.90
47532;DHT22;33273;52.254;7.988;2023-07-09T10:44:53;34.50;22.20
47532;DHT22;33273;52.254;7.988;2023-07-09T10:49:50;34.10;22.90
47532;DHT22;33273;52.254;7.988;2023-07-09T10:52:44;34.10;22.60
47532;DHT22;33273;52.254;7.988;2023-07-09T10:55:30;34.00;21.70
47532;DHT22;33273;52.254;7.988;2023-07-09T10:58:22;33.80;21.90
47532;DHT22;33273;52.254;7.988;2023-07-09T11:00:50;33.80;22.80
47532;DHT22;33273;52.254;7.988;2023-07-09T11:05:48;34.20;22.60
47532;DHT22;33273;52.254;7.988;2023-07-09T11:08:40;34.50;21.90
47532;DHT22;33273;52.254;7.988;2023-07-09T11:14:02;34.60;20.20
47532;DHT22;33273;52.254;7.988;2023-07-09T11:16:38;34.50;20.30
47532;DHT22;33273;52.254;7.988;2023-07-09T11:19:14;34.60;21.20
47532;DHT22;33273;52.254;7.988;2023-07-09T11:22:05;34.70;21.00
47532;DHT22;33273;52.254;7.988;2023-07-09T11:24:49;34.80;21.40
47532;DHT22;33273;52.254;7.988;2023-07-09T11:27:22;34.80;21.70
47532;DHT22;33273;52.254;7.988;2023-07-09T11:30:45;34.90;21.10
47532;DHT22;33273;52.254;7.988;2023-07-09T11:32:46;34.80;21.20
47532;DHT22;33273;52.254;7.988;2023-07-09T11:35:29;35.00;20.70
47532;DHT22;33273;52.254;7.988;2023-07-09T11:37:57;35.30;20.70
47532;DHT22;33273;52.254;7.988;2023-07-09T11:40:34;35.50;20.90
47532;DHT22;33273;52.254;7.988;2023-07-09T11:43:00;35.40;19.20
47532;DHT22;33273;52.254;7.988;2023-07-09T11:45:28;35.30;20.80
47532;DHT22;33273;52.254;7.988;2023-07-09T11:48:19;35.30;21.20
47532;DHT22;33273;52.254;7.988;2023-07-09T11:50:51;35.30;20.70
47532;DHT22;33273;52.254;7.988;2023-07-09T11:53:50;35.40;21.10
47532;DHT22;33273;52.254;7.988;2023-07-09T11:56:20;35.50;20.40
47532;DHT22;33273;52.254;7.988;2023-07-09T11:58:52;35.60;20.40
47532;DHT22;33273;52.254;7.988;2023-07-09T12:01:21;35.50;19.10
47532;DHT22;33273;52.254;7.988;2023-07-09T12:03:48;35.20;19.70
47532;DHT22;33273;52.254;7.988;2023-07-09T12:08:48;35.10;20.40
47532;DHT22;33273;52.254;7.988;2023-07-09T12:13:48;35.30;21.20
47532;DHT22;33273;52.254;7.988;2023-07-09T12:16:28;35.50;21.90
47532;DHT22;33273;52.254;7.988;2023-07-09T12:18:55;35.50;21.00
47532;DHT22;33273;52.254;7.988;2023-07-09T12:21:25;35.30;19.40
47532;DHT22;33273;52.254;7.988;2023-07-09T12:23:54;35.30;19.50
47532;DHT22;33273;52.254;7.988;2023-07-09T12:26:20;35.30;20.60
47532;DHT22;33273;52.254;7.988;2023-07-09T12:28:53;35.30;21.40
47532;DHT22;33273;52.254;7.988;2023-07-09T12:31:29;35.50;22.10
47532;DHT22;33273;52.254;7.988;2023-07-09T12:33:58;35.60;20.20
47532;DHT22;33273;52.254;7.988;2023-07-09T12:36:26;35.50;20.30
47532;DHT22;33273;52.254;7.988;2023-07-09T12:38:57;35.50;21.50
47532;DHT22;33273;52.254;7.988;2023-07-09T12:41:41;35.70;21.50
47532;DHT22;33273;52.254;7.988;2023-07-09T12:44:17;35.70;20.40
47532;DHT22;33273;52.254;7.988;2023-07-09T12:46:44;35.60;21.40
47532;DHT22;33273;52.254;7.988;2023-07-09T12:49:24;35.70;20.90
47532;DHT22;33273;52.254;7.988;2023-07-09T12:51:54;35.80;21.10
47532;DHT22;33273;52.254;7.988;2023-07-09T12:54:21;35.90;21.30
47532;DHT22;33273;52.254;7.988;2023-07-09T12:56:50;36.00;20.40
47532;DHT22;33273;52.254;7.988;2023-07-09T12:59:26;35.90;20.60
47532;DHT22;33273;52.254;7.988;2023-07-09T13:02:21;36.00;21.70
47532;DHT22;33273;52.254;7.988;2023-07-09T13:04:50;36.00;21.10
47532;DHT22;33273;52.254;7.988;2023-07-09T13:07:29;35.80;21.20
47532;DHT22;33273;52.254;7.988;2023-07-09T13:09:56;35.90;21.30
47532;DHT22;33273;52.254;7.988;2023-07-09T13:12:32;36.00;21.40
47532;DHT22;33273;52.254;7.988;2023-07-09T13:14:59;36.00;21.90
47532;DHT22;33273;52.254;7.988;2023-07-09T13:17:29;36.10;21.00
47532;DHT22;33273;52.254;7.988;2023-07-09T13:19:56;35.90;19.80
47532;DHT22;33273;52.254;7.988;2023-07-09T13:22:24;36.00;21.00
47532;DHT22;33273;52.254;7.988;2023-07-09T13:24:50;35.90;19.50
47532;DHT22;33273;52.254;7.988;2023-07-09T13:27:16;35.90;21.60
47532;DHT22;33273;52.254;7.988;2023-07-09T13:29:42;36.00;21.60
47532;DHT22;33273;52.254;7.988;2023-07-09T13:32:13;35.70;21.10
47532;DHT22;33273;52.254;7.988;2023-07-09T13:34:40;35.80;21.00
47532;DHT22;33273;52.254;7.988;2023-07-09T13:37:11;35.70;20.70
47532;DHT22;33273;52.254;7.988;2023-07-09T13:39:39;35.60;21.50
47532;DHT22;33273;52.254;7.988;2023-07-09T13:42:11;35.70;22.20
47532;DHT22;33273;52.254;7.988;2023-07-09T13:44:39;35.30;20.10
47532;DHT22;33273;52.254;7.988;2023-07-09T13:47:12;35.20;20.50
47532;DHT22;33273;52.254;7.988;2023-07-09T13:49:43;35.20;21.70
47532;DHT22;33273;52.254;7.988;2023-07-09T13:52:20;35.00;20.80
47532;DHT22;33273;52.254;7.988;2023-07-09T13:54:49;35.00;21.70
47532;DHT22;33273;52.254;7.988;2023-07-09T13:57:20;35.00;21.20
47532;DHT22;33273;52.254;7.988;2023-07-09T13:59:47;35.10;22.80
47532;DHT22;33273;52.254;7.988;2023-07-09T14:04:53;35.30;22.10
47532;DHT22;33273;52.254;7.988;2023-07-09T14:07:28;35.20;20.40
47532;DHT22;33273;52.254;7.988;2023-07-09T14:09:55;35.00;20.80
47532;DHT22;33273;52.254;7.988;2023-07-09T14:12:21;35.00;20.60
47532;DHT22;33273;52.254;7.988;2023-07-09T14:14:50;35.00;22.30
47532;DHT22;33273;52.254;7.988;2023-07-09T14:17:16;35.10;21.90
47532;DHT22;33273;52.254;7.988;2023-07-09T14:19:42;35.20;21.90
47532;DHT22;33273;52.254;7.988;2023-07-09T14:25:02;35.30;21.30
47532;DHT22;33273;52.254;7.988;2023-07-09T14:27:29;35.10;23.70
47532;DHT22;33273;52.254;7.988;2023-07-09T14:29:54;35.20;24.00
47532;DHT22;33273;52.254;7.988;2023-07-09T14:32:37;35.30;23.30
47532;DHT22;33273;52.254;7.988;2023-07-09T14:35:18;35.40;22.30
47532;DHT22;33273;52.254;7.988;2023-07-09T14:37:45;35.20;21.60
47532;DHT22;33273;52.254;7.988;2023-07-09T14:40:13;35.00;21.00
47532;DHT22;33273;52.254;7.988;2023-07-09T14:42:40;35.10;20.30
47532;DHT22;33273;52.254;7.988;2023-07-09T14:45:22;35.00;22.20
47532;DHT22;33273;52.254;7.988;2023-07-09T14:47:52;35.20;23.00
47532;DHT22;33273;52.254;7.988;2023-07-09T14:50:26;35.00;21.30
47532;DHT22;33273;52.254;7.988;2023-07-09T14:52:53;34.70;21.30
47532;DHT22;33273;52.254;7.988;2023-07-09T14:55:20;34.80;21.50
47532;DHT22;33273;52.254;7.988;2023-07-09T14:57:47;34.70;21.90
47532;DHT22;33273;52.254;7.988;2023-07-09T15:00:18;34.80;22.10
47532;DHT22;33273;52.254;7.988;2023-07-09T15:02:48;34.80;23.00
47532;DHT22;33273;52.254;7.988;2023-07-09T15:05:25;34.70;22.60
47532;DHT22;33273;52.254;7.988;2023-07-09T15:07:52;34.50;22.40
47532;DHT22;33273;52.254;7.988;2023-07-09T15:10:22;34.50;23.80
47532;DHT22;33273;52.254;7.988;2023-07-09T15:12:48;34.40;24.00
47532;DHT22;33273;52.254;7.988;2023-07-09T15:17:45;34.30;23.50
47532;DHT22;33273;52.254;7.988;2023-07-09T15:20:20;34.20;24.00
47532;DHT22;33273;52.254;7.988;2023-07-09T15:22:50;34.10;23.30
47532;DHT22;33273;52.254;7.988;2023-07-09T15:25:21;34.10;24.20
47532;DHT22;33273;52.254;7.988;2023-07-09T15:27:47;34.00;24.90
47532;DHT22;33273;52.254;7.988;2023-07-09T15:30:20;33.90;24.10
47532;DHT22;33273;52.254;7.988;2023-07-09T15:32:48;33.60;24.70
47532;DHT22;33273;52.254;7.988;2023-07-09T15:35:16;33.50;25.60
47532;DHT22;33273;52.254;7.988;2023-07-09T15:37:43;33.30;25.80
47532;DHT22;33273;52.254;7.988;2023-07-09T15:40:20;33.10;25.80
47532;DHT22;33273;52.254;7.988;2023-07-09T15:42:48;33.10;25.60
47532;DHT22;33273;52.254;7.988;2023-07-09T15:45:16;33.00;26.50
47532;DHT22;33273;52.254;7.988;2023-07-09T15:47:45;33.00;25.80
47532;DHT22;33273;52.254;7.988;2023-07-09T15:50:34;32.90;26.00
47532;DHT22;33273;52.254;7.988;2023-07-09T15:53:00;32.90;26.50
47532;DHT22;33273;52.254;7.988;2023-07-09T15:55:26;32.80;26.80
47532;DHT22;33273;52.254;7.988;2023-07-09T15:57:54;32.80;27.50
47532;DHT22;33273;52.254;7.988;2023-07-09T16:00:27;32.70;28.10
47532;DHT22;33273;52.254;7.988;2023-07-09T16:02:54;32.60;28.40
47532;DHT22;33273;52.254;7.988;2023-07-09T16:05:28;32.50;27.80
47532;DHT22;33273;52.254;7.988;2023-07-09T16:07:57;32.30;28.20
47532;DHT22;33273;52.254;7.988;2023-07-09T16:10:24;32.30;28.50
47532;DHT22;33273;52.254;7.988;2023-07-09T16:12:52;32.10;28.90
47532;DHT22;33273;52.254;7.988;2023-07-09T16:15:20;32.00;30.00
47532;DHT22;33273;52.254;7.988;2023-07-09T16:17:47;31.90;30.30
47532;DHT22;33273;52.254;7.988;2023-07-09T16:20:16;31.80;31.10
47532;DHT22;33273;52.254;7.988;2023-07-09T16:22:44;31.80;31.60
47532;DHT22;33273;52.254;7.988;2023-07-09T16:25:21;31.60;30.90
47532;DHT22;33273;52.254;7.988;2023-07-09T16:27:49;31.30;30.60